createdAt,value
2022-11-25T00:01:05.808Z,50.41
2022-11-25T00:06:13.029Z,50.08
2022-11-25T00:11:17.614Z,50.35
2022-11-25T00:16:22.530Z,49.83
2022-11-25T00:21:29.723Z,49.74
2022-11-25T00:26:34.193Z,50.16
2022-11-25T00:31:41.853Z,50.10
2022-11-25T00:36:49.047Z,50.03
2022-11-25T00:42:12.068Z,50.04
2022-11-25T00:47:17.241Z,51.18
2022-11-25T00:52:24.365Z,50.80
2022-11-25T00:57:27.894Z,51.13
2022-11-25T01:02:31.389Z,50.67
2022-11-25T01:07:36.411Z,50.31
2022-11-25T01:12:39.877Z,50.91
2022-11-25T01:17:43.429Z,50.94
2022-11-25T01:22:53.136Z,51.21
2022-11-25T01:27:56.624Z,50.63
2022-11-25T01:33:00.330Z,50.20
2022-11-25T01:38:05.221Z,49.87
2022-11-25T01:43:12.648Z,49.64
2022-11-25T01:48:19.626Z,49.66
2022-11-25T01:53:24.783Z,49.88
2022-11-25T01:58:30.341Z,49.67
2022-11-25T02:03:36.217Z,49.74
2022-11-25T02:08:42.022Z,49.99
2022-11-25T02:13:47.648Z,50.17
2022-11-25T02:18:51.451Z,50.66
2022-11-25T02:24:00.618Z,50.69
2022-11-25T02:29:05.823Z,50.24
2022-11-25T02:34:12.830Z,50.01
2022-11-25T02:39:16.432Z,50.04
2022-11-25T02:44:21.653Z,49.67
2022-11-25T02:49:25.295Z,49.86
2022-11-25T02:54:28.801Z,49.23
2022-11-25T02:59:33.697Z,49.65
2022-11-25T03:04:37.524Z,49.57
2022-11-25T03:09:41.152Z,49.03
2022-11-25T03:14:49.804Z,49.20
2022-11-25T03:19:53.359Z,50.02
2022-11-25T03:24:56.893Z,49.67
2022-11-25T03:30:02.537Z,49.26
2022-11-25T03:35:07.991Z,49.37
2022-11-25T03:40:13.584Z,50.33
2022-11-25T03:45:18.504Z,50.08
2022-11-25T03:50:24.105Z,50.54
2022-11-25T03:55:27.771Z,50.79
2022-11-25T04:00:33.849Z,51.47
2022-11-25T04:05:40.389Z,51.36
2022-11-25T04:10:44.499Z,51.35
2022-11-25T04:15:51.183Z,51.17
2022-11-25T04:20:55.268Z,50.72
2022-11-25T04:25:58.718Z,51.53
2022-11-25T04:31:10.462Z,51.71
2022-11-25T04:36:17.839Z,51.65
2022-11-25T04:41:21.486Z,52.09
2022-11-25T04:46:31.631Z,51.51
2022-11-25T04:51:35.161Z,51.51
2022-11-25T04:56:42.778Z,51.62
2022-11-25T05:01:48.016Z,51.40
2022-11-25T05:07:08.279Z,51.28
2022-11-25T05:12:13.609Z,51.15
2022-11-25T05:17:19.767Z,51.26
2022-11-25T05:22:25.149Z,51.34
2022-11-25T05:27:29.301Z,51.16
2022-11-25T05:32:37.544Z,51.52
2022-11-25T05:37:45.024Z,51.86
2022-11-25T05:42:48.736Z,52.29
2022-11-25T05:47:55.853Z,51.92
2022-11-25T05:53:02.515Z,51.85
2022-11-25T05:58:06.648Z,52.02
2022-11-25T06:03:12.561Z,52.65
2022-11-25T06:08:16.134Z,52.37
2022-11-25T06:13:19.848Z,52.83
2022-11-25T06:18:24.905Z,52.14
2022-11-25T06:23:28.396Z,51.18
2022-11-25T06:28:32.235Z,51.74
2022-11-25T06:33:37.117Z,51.06
2022-11-25T06:38:44.450Z,50.94
2022-11-25T06:43:48.028Z,51.61
2022-11-25T06:48:52.912Z,51.42
2022-11-25T06:53:56.284Z,50.83
2022-11-25T06:58:59.896Z,50.90
2022-11-25T07:04:06.498Z,51.38
2022-11-25T07:09:10.064Z,51.80
2022-11-25T07:14:15.795Z,52.27
2022-11-25T07:19:20.956Z,52.62
2022-11-25T07:24:24.524Z,52.16
2022-11-25T07:30:03.097Z,52.68
2022-11-25T07:34:52.875Z,51.72
2022-11-25T07:39:56.548Z,51.21
2022-11-25T07:45:00.353Z,53.28
2022-11-25T07:50:35.282Z,52.58
2022-11-25T07:55:38.813Z,53.43
2022-11-25T08:00:42.330Z,52.09
2022-11-25T08:05:47.291Z,51.74
2022-11-25T08:10:50.780Z,51.73
2022-11-25T08:15:54.891Z,51.64
2022-11-25T08:21:01.782Z,51.69
2022-11-25T08:26:06.120Z,52.20
2022-11-25T08:31:11.379Z,51.81
2022-11-25T08:36:17.144Z,52.37
2022-11-25T08:41:22.670Z,51.96
2022-11-25T08:46:28.918Z,51.41
2022-11-25T08:51:35.459Z,50.90
2022-11-25T08:56:39.040Z,50.91
2022-11-25T09:01:42.840Z,50.62
2022-11-25T09:06:47.856Z,50.67
2022-11-25T09:11:51.440Z,50.74
2022-11-25T09:16:57.119Z,50.91
2022-11-25T09:22:02.220Z,50.04
2022-11-25T09:27:05.894Z,50.15
2022-11-25T09:32:09.429Z,50.23
2022-11-25T09:37:14.413Z,49.28
2022-11-25T09:42:44.252Z,49.30
2022-11-25T09:47:57.303Z,49.86
2022-11-25T09:53:06.491Z,50.93
2022-11-25T09:58:27.101Z,51.34
2022-11-25T10:03:35.792Z,52.73
2022-11-25T10:08:43.077Z,52.19
2022-11-25T10:13:52.486Z,52.28
2022-11-25T10:19:00.848Z,51.60
2022-11-25T10:24:06.686Z,52.32
2022-11-25T10:29:23.992Z,51.59
2022-11-25T10:34:32.462Z,51.56
2022-11-25T10:39:37.466Z,50.92
2022-11-25T10:44:42.583Z,51.55
2022-11-25T10:49:52.675Z,51.33
2022-11-25T10:54:59.544Z,51.64
2022-11-25T11:00:05.316Z,50.88
2022-11-25T11:05:19.825Z,50.90
2022-11-25T11:10:25.819Z,51.26
2022-11-25T11:15:31.236Z,52.13
2022-11-25T11:20:35.568Z,50.59
2022-11-25T11:25:42.177Z,50.67
2022-11-25T11:30:57.392Z,51.26
2022-11-25T11:36:12.634Z,50.47
2022-11-25T11:41:22.695Z,50.91
2022-11-25T11:46:35.459Z,50.57
2022-11-25T11:51:43.757Z,50.34
2022-11-25T11:56:55.438Z,50.43
2022-11-25T12:02:14.110Z,51.81
2022-11-25T12:07:22.790Z,50.85
2022-11-25T12:12:40.208Z,51.25
2022-11-25T12:17:47.135Z,51.07
2022-11-25T12:22:54.871Z,50.59
2022-11-25T12:28:02.857Z,51.27
2022-11-25T12:33:11.130Z,51.25
2022-11-25T12:38:22.281Z,49.96
2022-11-25T12:43:35.530Z,49.84
2022-11-25T12:48:42.156Z,49.48
2022-11-25T12:53:52.391Z,50.53
2022-11-25T12:59:14.357Z,49.65
2022-11-25T13:04:36.750Z,50.55
2022-11-25T13:09:53.232Z,49.58
2022-11-25T13:15:22.836Z,51.17
2022-11-25T13:20:41.771Z,50.05
2022-11-25T13:25:47.917Z,50.41
2022-11-25T13:30:53.448Z,50.88
2022-11-25T13:35:57.617Z,49.56
2022-11-25T13:41:02.216Z,50.16
2022-11-25T13:46:07.132Z,49.89
2022-11-25T13:51:16.929Z,49.81
2022-11-25T13:56:28.426Z,50.42
2022-11-25T14:01:33.230Z,50.24
2022-11-25T14:06:59.051Z,49.22
2022-11-25T14:12:29.014Z,48.94
2022-11-25T14:18:11.920Z,50.27
2022-11-25T14:23:50.923Z,49.33
2022-11-25T14:28:58.896Z,49.15
2022-11-25T14:34:06.652Z,50.75
2022-11-25T14:39:12.127Z,49.57
2022-11-25T14:44:18.721Z,49.17
2022-11-25T14:54:47.517Z,48.98
2022-11-25T14:59:51.750Z,48.83
2022-11-25T15:05:02.733Z,49.00
2022-11-25T15:10:08.129Z,48.71
2022-11-25T15:15:15.771Z,48.97
2022-11-25T15:20:20.625Z,48.65
2022-11-25T15:25:24.142Z,48.57
2022-11-25T15:30:31.555Z,49.11
2022-11-25T15:35:36.410Z,49.11
2022-11-25T15:40:44.021Z,48.42
2022-11-25T15:45:49.711Z,48.77
2022-11-25T15:51:00.070Z,48.83
2022-11-25T15:56:04.933Z,48.75
2022-11-25T16:01:21.119Z,48.63
2022-11-25T16:06:27.485Z,49.31
2022-11-25T16:11:33.624Z,49.32
2022-11-25T16:16:37.383Z,49.57
2022-11-25T16:22:01.237Z,49.07
2022-11-25T16:27:06.207Z,49.61
2022-11-25T16:32:15.527Z,49.56
2022-11-25T16:37:20.448Z,49.99
2022-11-25T16:42:23.888Z,50.12
2022-11-25T16:47:27.510Z,50.90
2022-11-25T16:52:32.334Z,51.91
2022-11-25T16:57:36.313Z,51.44
2022-11-25T17:02:39.824Z,52.30
2022-11-25T17:07:44.886Z,51.61
2022-11-25T17:12:49.076Z,51.64
2022-11-25T17:17:52.559Z,51.15
2022-11-25T17:22:58.134Z,51.68
2022-11-25T17:28:01.785Z,52.57
2022-11-25T17:33:07.433Z,51.98
2022-11-25T17:38:15.327Z,51.06
2022-11-25T17:43:20.391Z,50.74
2022-11-25T17:48:23.912Z,50.87
2022-11-25T17:53:28.717Z,51.55
2022-11-25T17:58:32.285Z,51.43
2022-11-25T18:03:35.744Z,51.60
2022-11-25T18:08:40.597Z,51.21
2022-11-25T18:13:45.210Z,51.77
2022-11-25T18:18:48.631Z,51.15
2022-11-25T18:23:53.712Z,50.39
2022-11-25T18:28:57.177Z,50.70
2022-11-25T18:34:00.830Z,51.29
2022-11-25T18:39:05.768Z,51.12
2022-11-25T18:44:15.973Z,52.26
2022-11-25T18:49:19.421Z,51.74
2022-11-25T18:54:24.320Z,52.03
2022-11-25T18:59:29.110Z,51.78
2022-11-25T19:04:32.585Z,51.96
2022-11-25T19:09:38.397Z,51.48
2022-11-25T19:14:42.898Z,51.57
2022-11-25T19:19:46.337Z,51.04
2022-11-25T19:24:52.047Z,51.07
2022-11-25T19:29:55.617Z,51.23
2022-11-25T19:35:01.849Z,51.09
2022-11-25T19:40:14.645Z,51.11
2022-11-25T19:45:19.444Z,51.56
2022-11-25T19:50:24.911Z,51.73
2022-11-25T19:55:30.174Z,51.69
2022-11-25T20:00:34.510Z,51.15
2022-11-25T20:05:39.306Z,51.30
2022-11-25T20:10:44.177Z,50.85
2022-11-25T20:15:47.738Z,50.96
2022-11-25T20:20:56.756Z,51.35
2022-11-25T20:26:01.889Z,51.60
2022-11-25T20:31:05.486Z,51.24
2022-11-25T20:36:14.502Z,51.64
2022-11-25T20:41:24.373Z,51.63
2022-11-25T20:46:31.228Z,52.18
2022-11-25T20:51:34.770Z,52.57
2022-11-25T20:56:39.671Z,53.20
2022-11-25T21:01:44.917Z,54.31
2022-11-25T21:06:48.432Z,52.54
2022-11-25T21:11:53.707Z,52.80
2022-11-25T21:16:57.162Z,53.27
2022-11-25T21:22:00.738Z,52.91
2022-11-25T21:27:13.977Z,53.54
2022-11-25T21:32:21.374Z,53.63
2022-11-25T21:37:29.721Z,53.47
2022-11-25T21:42:34.761Z,53.35
2022-11-25T21:47:38.219Z,52.88
2022-11-25T21:52:41.708Z,52.88
2022-11-25T21:57:46.586Z,53.03
2022-11-25T22:02:50.208Z,52.86
2022-11-25T22:07:55.076Z,52.81
2022-11-25T22:13:00.278Z,53.85
2022-11-25T22:18:03.771Z,52.95
2022-11-25T22:23:12.396Z,51.73
2022-11-25T22:28:19.014Z,51.92
2022-11-25T22:33:32.970Z,52.56
2022-11-25T22:38:36.458Z,52.05
2022-11-25T22:43:46.194Z,52.04
2022-11-25T22:48:49.725Z,52.09
2022-11-25T22:53:53.221Z,52.49
2022-11-25T22:59:00.231Z,51.72
2022-11-25T23:04:03.995Z,51.07
2022-11-25T23:09:12.341Z,51.60
2022-11-25T23:14:17.207Z,51.85
2022-11-25T23:19:20.637Z,52.11
2022-11-25T23:24:24.054Z,52.23
2022-11-25T23:29:28.914Z,52.72
2022-11-25T23:34:32.647Z,52.25
2022-11-25T23:39:36.157Z,52.20
2022-11-25T23:44:41.070Z,52.66
2022-11-25T23:49:46.128Z,52.66
2022-11-25T23:54:50.950Z,54.60
2022-11-25T23:59:55.908Z,54.28
